KGFL/GFL METAR and TAF weather

Enter ICAO airport designator
Station Type Date Time Source
KGFL METAR 2019/08/22 06:53 UTC NOAA

KGFL 220653Z AUTO 19006KT 10SM OVC005 21/19 A2983 RMK AO2 CIG 002V008 SLP098 T02060194


Station Type Date Time Source
KGFL Decoded METAR 2019/08/22 06:53 UTC NOAA

Station name not available
Aug 22, 2019 - 02:53 AM EDT / 2019.08.22 0653 UTC
Wind: from the S (190 degrees) at 7 MPH (6 KT):0
Visibility: 10 mile(s):0
Sky conditions: overcast
Temperature: 69.1 F (20.6 C)
Dew Point: 66.9 F (19.4 C)
Relative Humidity: 92%
Pressure (altimeter): 29.83 in. Hg (1010 hPa)
ob: KGFL 220653Z AUTO 19006KT 10SM OVC005 21/19 A2983 RMK AO2 CIG 002V008 SLP098 T02060194
cycle: 7

Station Type Date Time Source
KGFL TAF 2019/08/22 06:36 UTC NOAA

TAF KGFL 220533Z 2206/2306 20004KT 3SM BR OVC005
TEMPO 2206/2210 1SM BR VV003
FM221300 23008KT P6SM SCT060 BKN150
FM222300 VRB03KT P6SM SCT150

Example: see airport list